createdAt,value
2019-02-24T00:00:04.793Z,2.37
2019-02-24T00:02:34.352Z,3.50
2019-02-24T00:05:03.916Z,4.83
2019-02-24T00:07:33.529Z,3.97
2019-02-24T00:10:03.055Z,3.57
2019-02-24T00:12:32.712Z,2.53
2019-02-24T00:15:02.249Z,3.33
2019-02-24T00:17:31.806Z,8.77
2019-02-24T00:20:01.463Z,6.07
2019-02-24T00:22:30.985Z,6.20
2019-02-24T00:25:00.578Z,6.70
2019-02-24T00:27:30.238Z,3.53
2019-02-24T00:29:59.802Z,2.87
2019-02-24T00:32:29.322Z,2.57
2019-02-24T00:34:58.873Z,11.23
2019-02-24T00:37:28.415Z,4.70
2019-02-24T00:39:58.121Z,1.60
2019-02-24T00:42:27.632Z,3.47
2019-02-24T00:44:57.235Z,3.30
2019-02-24T00:47:26.790Z,2.80
2019-02-24T00:49:56.328Z,4.93
2019-02-24T00:52:25.866Z,2.37
2019-02-24T00:54:55.524Z,5.40
2019-02-24T00:57:25.076Z,6.43
2019-02-24T00:59:54.628Z,3.27
2019-02-24T01:02:24.454Z,4.73
2019-02-24T01:04:53.970Z,3.80
2019-02-24T01:07:23.574Z,3.67
2019-02-24T01:09:53.115Z,4.47
2019-02-24T01:12:22.845Z,5.80
2019-02-24T01:14:52.392Z,4.73
2019-02-24T01:17:21.949Z,4.27
2019-02-24T01:19:51.635Z,2.93
2019-02-24T01:22:21.238Z,3.83
2019-02-24T01:24:50.870Z,5.43
2019-02-24T01:27:20.408Z,8.60
2019-02-24T01:29:49.971Z,9.27
2019-02-24T01:32:19.521Z,8.67
2019-02-24T01:34:49.150Z,17.00
2019-02-24T01:37:18.674Z,13.90
2019-02-24T01:39:48.192Z,16.30
2019-02-24T01:42:17.745Z,12.23
2019-02-24T01:44:47.293Z,10.60
2019-02-24T01:47:16.907Z,7.43
2019-02-24T01:49:46.482Z,8.13
2019-02-24T01:52:16.022Z,8.70
2019-02-24T01:54:45.634Z,9.47
2019-02-24T01:57:15.207Z,9.50
2019-02-24T01:59:44.833Z,11.07
2019-02-24T02:02:14.418Z,12.17
2019-02-24T02:04:43.980Z,9.97
2019-02-24T02:07:13.505Z,8.07
2019-02-24T02:09:43.148Z,12.93
2019-02-24T02:12:12.694Z,11.50
2019-02-24T02:14:42.354Z,12.87
2019-02-24T02:17:11.959Z,14.53
2019-02-24T02:19:41.520Z,25.50
2019-02-24T02:22:11.079Z,20.43
2019-02-24T02:24:40.708Z,11.43
2019-02-24T02:27:10.231Z,6.70
2019-02-24T02:29:39.793Z,9.83
2019-02-24T02:32:09.325Z,8.60
2019-02-24T02:34:38.859Z,6.13
2019-02-24T02:37:08.445Z,10.57
2019-02-24T02:39:38.257Z,11.10
2019-02-24T02:42:07.823Z,13.10
2019-02-24T02:44:37.390Z,16.63
2019-02-24T02:47:07.044Z,7.40
2019-02-24T02:49:36.677Z,10.67
2019-02-24T02:52:06.211Z,10.43
2019-02-24T02:54:35.771Z,7.03
2019-02-24T02:57:05.304Z,6.73
2019-02-24T02:59:34.840Z,5.40
2019-02-24T03:02:04.362Z,7.23
2019-02-24T03:04:34.027Z,6.00
2019-02-24T03:07:25.402Z,5.37
2019-02-24T03:09:54.985Z,8.40
2019-02-24T03:12:24.510Z,6.10
2019-02-24T03:14:54.046Z,6.03
2019-02-24T03:17:24.482Z,8.20
2019-02-24T03:19:54.019Z,6.33
2019-02-24T03:22:23.544Z,11.40
2019-02-24T03:24:53.115Z,6.33
2019-02-24T03:27:22.786Z,6.67
2019-02-24T03:29:52.326Z,10.10
2019-02-24T03:32:21.903Z,7.77
2019-02-24T03:34:51.458Z,10.23
2019-02-24T03:37:21.024Z,9.93
2019-02-24T03:39:50.575Z,9.60
2019-02-24T03:42:20.103Z,8.10
2019-02-24T03:44:49.638Z,11.03
2019-02-24T03:47:19.183Z,11.77
2019-02-24T03:49:48.776Z,7.50
2019-02-24T03:52:18.304Z,8.23
2019-02-24T03:54:47.858Z,9.47
2019-02-24T03:57:17.405Z,9.60
2019-02-24T03:59:47.043Z,12.83
2019-02-24T04:02:16.613Z,15.30
2019-02-24T04:04:46.182Z,13.67
2019-02-24T04:07:15.730Z,23.53
2019-02-24T04:09:45.262Z,16.33
2019-02-24T04:12:14.811Z,5.43
2019-02-24T04:14:44.367Z,11.77
2019-02-24T04:17:13.920Z,10.87
2019-02-24T04:19:43.512Z,18.13
2019-02-24T04:22:13.127Z,13.20
2019-02-24T04:24:42.654Z,6.23
2019-02-24T04:27:12.241Z,11.37
2019-02-24T04:29:41.823Z,15.93
2019-02-24T04:32:11.501Z,5.77
2019-02-24T04:34:41.129Z,7.37
2019-02-24T04:37:10.657Z,7.77
2019-02-24T04:39:40.202Z,11.30
2019-02-24T04:42:09.765Z,8.70
2019-02-24T04:44:39.304Z,10.33
2019-02-24T04:47:08.946Z,8.27
2019-02-24T04:49:38.484Z,6.47
2019-02-24T04:52:08.011Z,10.50
2019-02-24T04:54:37.574Z,14.23
2019-02-24T04:57:07.134Z,7.10
2019-02-24T04:59:36.766Z,19.87
2019-02-24T05:02:06.329Z,13.70
2019-02-24T05:04:35.988Z,11.50
2019-02-24T05:07:05.517Z,8.67
2019-02-24T05:09:35.068Z,5.47
2019-02-24T05:12:04.615Z,6.60
2019-02-24T05:14:34.163Z,8.17
2019-02-24T05:17:03.763Z,13.10
2019-02-24T05:19:33.411Z,9.13
2019-02-24T05:22:03.190Z,13.20
2019-02-24T05:24:32.763Z,13.80
2019-02-24T05:27:02.397Z,16.50
2019-02-24T05:29:31.927Z,15.80
2019-02-24T05:32:01.478Z,15.47
2019-02-24T05:34:31.019Z,10.30
2019-02-24T05:37:00.575Z,10.97
2019-02-24T05:39:30.149Z,21.03
2019-02-24T05:41:59.687Z,11.90
2019-02-24T05:44:29.280Z,14.30
2019-02-24T05:46:58.804Z,8.30
2019-02-24T05:49:28.463Z,7.40
2019-02-24T05:51:58.105Z,8.37
2019-02-24T05:54:27.722Z,11.90
2019-02-24T05:56:57.320Z,13.23
2019-02-24T05:59:26.940Z,13.97
2019-02-24T06:01:56.463Z,13.57
2019-02-24T06:04:26.078Z,19.80
2019-02-24T06:06:55.639Z,17.90
2019-02-24T06:09:25.289Z,17.40
2019-02-24T06:11:55.115Z,23.30
2019-02-24T06:14:24.659Z,13.90
2019-02-24T06:16:54.267Z,32.50
2019-02-24T06:19:23.969Z,17.50
2019-02-24T06:21:53.523Z,20.23
2019-02-24T06:24:23.120Z,15.43
2019-02-24T06:26:52.650Z,22.20
2019-02-24T06:29:22.195Z,18.13
2019-02-24T06:31:51.741Z,18.37
2019-02-24T06:34:21.274Z,17.30
2019-02-24T06:36:50.862Z,19.87
2019-02-24T06:39:20.472Z,21.10
2019-02-24T06:41:50.081Z,16.33
2019-02-24T06:44:19.666Z,26.87
2019-02-24T06:46:49.249Z,22.13
2019-02-24T06:49:18.781Z,9.27
2019-02-24T06:51:48.313Z,16.60
2019-02-24T06:54:17.891Z,29.13
2019-02-24T06:56:47.505Z,31.37
2019-02-24T06:59:17.052Z,32.03
2019-02-24T07:01:46.582Z,27.03
2019-02-24T07:04:16.137Z,17.57
2019-02-24T07:06:45.695Z,9.60
2019-02-24T07:09:15.245Z,15.60
2019-02-24T07:11:44.824Z,13.33
2019-02-24T07:14:14.351Z,11.07
2019-02-24T07:16:43.909Z,84.87
2019-02-24T07:19:13.457Z,16.20
2019-02-24T07:21:43.024Z,17.87
2019-02-24T07:24:12.570Z,12.03
2019-02-24T07:26:42.122Z,23.97
2019-02-24T07:29:11.696Z,27.80
2019-02-24T07:31:41.222Z,24.47
2019-02-24T07:34:10.778Z,18.00
2019-02-24T07:36:40.328Z,11.27
2019-02-24T07:39:09.877Z,14.47
2019-02-24T07:41:39.429Z,42.60
2019-02-24T07:44:08.971Z,25.33
2019-02-24T07:46:38.525Z,9.30
2019-02-24T07:49:08.097Z,14.67
2019-02-24T07:51:37.653Z,20.10
2019-02-24T07:54:07.242Z,12.80
2019-02-24T07:56:37.392Z,19.73
2019-02-24T07:59:07.009Z,14.57
2019-02-24T08:01:36.637Z,15.03
2019-02-24T08:04:06.193Z,12.70
2019-02-24T08:06:35.862Z,16.03
2019-02-24T08:09:05.422Z,22.37
2019-02-24T08:11:34.975Z,12.73
2019-02-24T08:14:04.583Z,21.17
2019-02-24T08:16:34.132Z,47.30
2019-02-24T08:19:03.719Z,16.23
2019-02-24T08:21:33.281Z,21.67
2019-02-24T08:24:02.872Z,22.07
2019-02-24T08:26:32.405Z,30.57
2019-02-24T08:29:01.959Z,27.60
2019-02-24T08:31:31.538Z,20.87
2019-02-24T08:34:01.063Z,16.00
2019-02-24T08:36:30.582Z,47.10
2019-02-24T08:39:00.158Z,29.53
2019-02-24T08:41:29.756Z,12.47
2019-02-24T08:43:59.340Z,15.83
2019-02-24T08:46:28.906Z,11.10
2019-02-24T08:48:58.515Z,20.90
2019-02-24T08:51:28.184Z,33.77
2019-02-24T08:53:57.889Z,31.20
2019-02-24T08:56:27.506Z,33.30
2019-02-24T08:58:57.137Z,26.60
2019-02-24T09:01:26.711Z,22.13
2019-02-24T09:03:56.354Z,13.23
2019-02-24T09:06:25.960Z,34.00
2019-02-24T09:08:55.505Z,73.67
2019-02-24T09:11:25.140Z,97.07
2019-02-24T09:13:54.755Z,61.70
2019-02-24T09:16:24.367Z,47.63
2019-02-24T09:18:53.942Z,15.23
2019-02-24T09:21:23.614Z,32.60
2019-02-24T09:23:53.228Z,41.87
2019-02-24T09:26:22.925Z,10.17
2019-02-24T09:28:52.448Z,30.83
2019-02-24T09:31:22.122Z,28.30
2019-02-24T09:33:51.787Z,27.73
2019-02-24T09:36:21.387Z,13.17
2019-02-24T09:38:50.991Z,14.07
2019-02-24T09:41:20.737Z,51.60
2019-02-24T09:43:50.359Z,32.87
2019-02-24T09:46:20.067Z,31.37
2019-02-24T09:48:49.630Z,17.67
2019-02-24T09:51:19.187Z,16.73
2019-02-24T09:53:48.885Z,28.97
2019-02-24T09:56:18.521Z,21.00
2019-02-24T09:58:48.203Z,22.90
2019-02-24T10:01:17.809Z,17.27
2019-02-24T10:03:47.405Z,13.17
2019-02-24T10:06:16.980Z,13.67
2019-02-24T10:08:46.702Z,22.03
2019-02-24T10:11:16.454Z,19.70
2019-02-24T10:13:45.989Z,18.03
2019-02-24T10:16:15.698Z,14.77
2019-02-24T10:18:45.372Z,12.80
2019-02-24T10:21:15.012Z,21.60
2019-02-24T10:23:44.548Z,25.77
2019-02-24T10:26:14.225Z,30.53
2019-02-24T10:28:44.001Z,26.13
2019-02-24T10:31:19.868Z,42.90
2019-02-24T10:33:45.053Z,30.27
2019-02-24T10:36:14.608Z,35.93
2019-02-24T10:38:44.278Z,38.70
2019-02-24T10:41:13.811Z,43.37
2019-02-24T10:43:43.539Z,51.20
2019-02-24T10:46:13.114Z,33.70
2019-02-24T10:48:42.647Z,27.70
2019-02-24T10:51:12.266Z,40.73
2019-02-24T10:53:41.807Z,41.27
2019-02-24T10:56:12.496Z,12.90
2019-02-24T10:58:42.049Z,30.50
2019-02-24T11:01:11.597Z,53.57
2019-02-24T11:03:41.128Z,24.30
2019-02-24T11:06:10.761Z,27.07
2019-02-24T11:08:40.322Z,19.70
2019-02-24T11:11:09.997Z,17.13
2019-02-24T11:13:39.526Z,26.33
2019-02-24T11:16:09.149Z,35.60
2019-02-24T11:18:38.881Z,16.53
2019-02-24T11:21:08.490Z,27.53
2019-02-24T11:23:38.173Z,27.80
2019-02-24T11:26:07.702Z,28.27
2019-02-24T11:28:37.411Z,34.07
2019-02-24T11:31:06.950Z,23.30
2019-02-24T11:33:36.518Z,33.47
2019-02-24T11:36:06.076Z,29.63
2019-02-24T11:38:35.606Z,18.47
2019-02-24T11:41:05.147Z,14.63
2019-02-24T11:43:34.795Z,33.20
2019-02-24T11:46:05.259Z,66.30
2019-02-24T11:48:34.830Z,25.70
2019-02-24T11:51:04.484Z,29.00
2019-02-24T11:53:34.051Z,43.10
2019-02-24T11:56:03.606Z,34.13
2019-02-24T11:58:33.192Z,25.83
2019-02-24T12:01:02.896Z,31.23
2019-02-24T12:03:32.440Z,34.83
2019-02-24T12:06:02.034Z,30.67
2019-02-24T12:08:31.795Z,17.77
2019-02-24T12:11:01.405Z,29.47
2019-02-24T12:13:31.058Z,23.43
2019-02-24T12:16:00.656Z,13.07
2019-02-24T12:18:30.317Z,31.10
2019-02-24T12:20:59.868Z,20.40
2019-02-24T12:23:29.419Z,17.47
2019-02-24T12:25:58.987Z,16.20
2019-02-24T12:28:28.557Z,36.60
2019-02-24T12:30:58.271Z,34.97
2019-02-24T12:33:27.813Z,24.60
2019-02-24T12:35:57.351Z,25.20
2019-02-24T12:38:27.003Z,33.20
2019-02-24T12:40:56.549Z,32.17
2019-02-24T12:43:26.242Z,43.73
2019-02-24T12:45:55.809Z,22.60
2019-02-24T12:48:25.337Z,22.93
2019-02-24T12:50:54.893Z,17.67
2019-02-24T12:53:24.527Z,30.47
2019-02-24T12:55:54.097Z,19.50
2019-02-24T12:58:23.639Z,16.27
2019-02-24T13:00:53.576Z,7.60
2019-02-24T13:03:24.195Z,27.17
2019-02-24T13:05:53.932Z,25.27
2019-02-24T13:08:23.491Z,16.10
2019-02-24T13:10:53.122Z,23.70
2019-02-24T13:13:22.645Z,13.80
2019-02-24T13:15:52.276Z,37.07
2019-02-24T13:18:21.880Z,22.37
2019-02-24T13:20:51.672Z,25.33
2019-02-24T13:23:21.228Z,25.43
2019-02-24T13:25:50.795Z,41.57
2019-02-24T13:28:20.340Z,74.07
2019-02-24T13:30:49.886Z,48.10
2019-02-24T13:33:19.446Z,35.53
2019-02-24T13:35:48.998Z,21.87
2019-02-24T13:38:18.546Z,29.50
2019-02-24T13:40:48.134Z,25.53
2019-02-24T13:43:17.683Z,41.20
2019-02-24T13:45:47.234Z,31.70
2019-02-24T13:48:16.772Z,21.57
2019-02-24T13:50:46.436Z,23.87
2019-02-24T13:53:15.980Z,46.03
2019-02-24T13:55:45.598Z,26.10
2019-02-24T13:58:15.263Z,38.83
2019-02-24T14:00:44.899Z,24.30
2019-02-24T14:03:14.534Z,37.50
2019-02-24T14:05:44.111Z,40.57
2019-02-24T14:08:13.769Z,46.97
2019-02-24T14:10:43.408Z,23.13
2019-02-24T14:13:12.970Z,28.93
2019-02-24T14:15:42.528Z,25.17
2019-02-24T14:18:12.107Z,37.43
2019-02-24T14:20:41.702Z,46.10
2019-02-24T14:23:11.315Z,27.67
2019-02-24T14:25:40.925Z,20.77
2019-02-24T14:28:10.565Z,23.93
2019-02-24T14:30:40.147Z,36.03
2019-02-24T14:33:09.872Z,26.77
2019-02-24T14:35:39.424Z,20.43
2019-02-24T14:38:09.063Z,30.37
2019-02-24T14:40:38.655Z,30.50
2019-02-24T14:43:08.264Z,25.37
2019-02-24T14:45:37.804Z,27.37
2019-02-24T14:48:07.351Z,36.53
2019-02-24T14:50:36.903Z,28.33
2019-02-24T14:53:06.448Z,28.90
2019-02-24T14:55:36.024Z,31.97
2019-02-24T14:58:05.583Z,19.57
2019-02-24T15:00:35.254Z,22.80
2019-02-24T15:03:04.841Z,31.87
2019-02-24T15:05:34.588Z,29.73
2019-02-24T15:08:04.141Z,17.27
2019-02-24T15:10:33.733Z,15.93
2019-02-24T15:13:03.296Z,22.83
2019-02-24T15:15:33.521Z,26.03
2019-02-24T15:18:03.305Z,40.43
2019-02-24T15:20:32.906Z,41.10
2019-02-24T15:23:02.463Z,33.07
2019-02-24T15:25:32.083Z,26.03
2019-02-24T15:28:01.633Z,34.47
2019-02-24T15:30:32.160Z,28.10
2019-02-24T15:33:01.718Z,19.60
2019-02-24T15:35:31.253Z,23.03
2019-02-24T15:38:00.814Z,21.80
2019-02-24T15:40:30.498Z,24.13
2019-02-24T15:43:00.107Z,29.63
2019-02-24T15:45:29.638Z,29.90
2019-02-24T15:47:59.230Z,22.50
2019-02-24T15:50:28.818Z,32.40
2019-02-24T15:52:58.414Z,30.30
2019-02-24T15:55:28.002Z,22.87
2019-02-24T15:57:57.568Z,43.63
2019-02-24T16:00:27.158Z,37.37
2019-02-24T16:03:01.600Z,40.10
2019-02-24T16:05:28.204Z,30.47
2019-02-24T16:07:57.814Z,31.13
2019-02-24T16:10:27.354Z,31.43
2019-02-24T16:12:56.980Z,36.77
2019-02-24T16:15:26.552Z,33.50
2019-02-24T16:17:56.115Z,55.47
2019-02-24T16:20:26.365Z,37.03
2019-02-24T16:22:56.031Z,45.13
2019-02-24T16:25:25.684Z,30.10
2019-02-24T16:27:55.497Z,39.80
2019-02-24T16:30:25.093Z,24.03
2019-02-24T16:32:54.629Z,47.80
2019-02-24T16:35:24.242Z,56.83
2019-02-24T16:37:53.843Z,53.03
2019-02-24T16:40:23.525Z,31.53
2019-02-24T16:42:53.264Z,48.80
2019-02-24T16:45:22.908Z,39.43
2019-02-24T16:47:52.463Z,34.50
2019-02-24T16:50:22.113Z,62.87
2019-02-24T16:52:51.806Z,83.07
2019-02-24T16:55:21.392Z,62.13
2019-02-24T16:57:51.027Z,65.07
2019-02-24T17:00:20.890Z,67.60
2019-02-24T17:02:50.455Z,71.07
2019-02-24T17:05:20.059Z,64.03
2019-02-24T17:07:49.682Z,66.63
2019-02-24T17:10:19.840Z,69.77
2019-02-24T17:12:49.484Z,51.57
2019-02-24T17:15:19.062Z,61.03
2019-02-24T17:17:49.118Z,91.70
2019-02-24T17:20:19.229Z,94.17
2019-02-24T17:22:48.841Z,134.00
2019-02-24T17:25:21.318Z,76.50
2019-02-24T17:27:53.919Z,92.93
2019-02-24T17:30:24.107Z,70.97
2019-02-24T17:32:53.906Z,69.00
2019-02-24T17:35:23.800Z,69.93
2019-02-24T17:37:53.467Z,78.30
2019-02-24T17:40:23.564Z,134.63
2019-02-24T17:42:53.211Z,54.73
2019-02-24T17:45:23.041Z,59.57
2019-02-24T17:47:55.891Z,52.50
2019-02-24T17:50:25.611Z,52.50
2019-02-24T17:52:55.380Z,53.10
2019-02-24T17:55:25.548Z,43.10
2019-02-24T17:57:55.207Z,44.83
2019-02-24T18:00:30.498Z,44.27
2019-02-24T18:03:00.162Z,41.60
2019-02-24T18:05:29.853Z,60.70
2019-02-24T18:07:59.472Z,42.83
2019-02-24T18:10:29.119Z,41.50
2019-02-24T18:12:58.734Z,34.13
2019-02-24T18:15:28.330Z,28.20
2019-02-24T18:17:57.873Z,34.60
2019-02-24T18:20:27.423Z,42.63
2019-02-24T18:22:57.013Z,38.50
2019-02-24T18:25:26.650Z,43.17
2019-02-24T18:27:56.232Z,42.20
2019-02-24T18:30:25.823Z,46.80
2019-02-24T18:32:55.391Z,48.20
2019-02-24T18:35:25.015Z,43.67
2019-02-24T18:37:54.768Z,52.40
2019-02-24T18:40:24.351Z,53.10
2019-02-24T18:43:00.147Z,54.50
2019-02-24T18:45:25.238Z,67.13
2019-02-24T18:47:54.853Z,64.80
2019-02-24T18:50:24.473Z,66.73
2019-02-24T18:52:54.061Z,95.93
2019-02-24T18:55:23.762Z,90.27
2019-02-24T18:57:53.414Z,66.97
2019-02-24T19:00:23.039Z,41.63
2019-02-24T19:02:54.815Z,52.70
2019-02-24T19:05:23.941Z,53.07
2019-02-24T19:07:53.490Z,54.03
2019-02-24T19:10:23.057Z,60.00
2019-02-24T19:12:52.593Z,55.20
2019-02-24T19:15:22.176Z,63.00
2019-02-24T19:17:51.742Z,67.17
2019-02-24T19:20:21.377Z,56.27
2019-02-24T19:22:50.930Z,71.40
2019-02-24T19:25:20.505Z,66.17
2019-02-24T19:27:50.055Z,79.83
2019-02-24T19:30:19.682Z,65.53
2019-02-24T19:32:49.255Z,51.07
2019-02-24T19:35:18.829Z,49.20
2019-02-24T19:37:48.389Z,40.70
2019-02-24T19:40:18.173Z,42.50
2019-02-24T19:42:47.727Z,47.50
2019-02-24T19:45:17.895Z,49.23
2019-02-24T19:47:47.453Z,40.27
2019-02-24T19:50:17.459Z,45.07
2019-02-24T19:52:47.075Z,42.53
2019-02-24T19:55:16.645Z,44.27
2019-02-24T19:57:46.202Z,50.40
2019-02-24T20:00:18.693Z,45.77
2019-02-24T20:02:48.373Z,64.27
2019-02-24T20:05:18.044Z,61.07
2019-02-24T20:07:47.742Z,73.03
2019-02-24T20:10:18.901Z,80.07
2019-02-24T20:12:48.469Z,93.63
2019-02-24T20:15:18.153Z,60.33
2019-02-24T20:17:47.724Z,52.23
2019-02-24T20:20:17.395Z,48.90
2019-02-24T20:22:47.011Z,72.10
2019-02-24T20:25:16.697Z,91.33
2019-02-24T20:27:46.240Z,186.47
2019-02-24T20:30:18.777Z,320.13
2019-02-24T20:32:48.582Z,416.60
2019-02-24T20:35:18.173Z,501.53
2019-02-24T20:37:47.881Z,339.10
2019-02-24T20:40:17.435Z,217.80
2019-02-24T20:42:47.021Z,179.87
2019-02-24T20:45:17.603Z,138.80
2019-02-24T20:47:47.192Z,114.93
2019-02-24T20:50:17.826Z,109.80
2019-02-24T20:52:47.402Z,159.40
2019-02-24T20:55:17.090Z,134.37
2019-02-24T20:57:47.260Z,64.87
2019-02-24T21:00:22.860Z,50.37
2019-02-24T21:02:52.431Z,64.87
2019-02-24T21:05:21.978Z,190.23
2019-02-24T21:07:51.600Z,104.27
2019-02-24T21:10:21.179Z,101.10
2019-02-24T21:12:50.741Z,110.77
2019-02-24T21:15:20.330Z,67.90
2019-02-24T21:17:49.900Z,78.00
2019-02-24T21:20:21.411Z,66.07
2019-02-24T21:22:51.089Z,45.20
2019-02-24T21:25:20.688Z,56.47
2019-02-24T21:27:50.296Z,56.27
2019-02-24T21:30:19.941Z,55.80
2019-02-24T21:32:49.499Z,56.67
2019-02-24T21:35:19.119Z,45.87
2019-02-24T21:37:48.719Z,40.87
2019-02-24T21:40:18.463Z,32.87
2019-02-24T21:42:48.013Z,25.97
2019-02-24T21:45:18.746Z,42.03
2019-02-24T21:47:48.304Z,35.00
2019-02-24T21:50:17.998Z,49.57
2019-02-24T21:52:47.530Z,54.57
2019-02-24T21:55:17.138Z,42.50
2019-02-24T21:57:46.698Z,43.90
2019-02-24T22:00:21.119Z,35.43
2019-02-24T22:02:50.643Z,39.93
2019-02-24T22:05:20.193Z,54.40
2019-02-24T22:07:49.726Z,38.30
2019-02-24T22:10:19.343Z,48.73
2019-02-24T22:12:48.993Z,42.70
2019-02-24T22:15:19.038Z,52.17
2019-02-24T22:17:48.603Z,86.17
2019-02-24T22:20:20.140Z,40.23
2019-02-24T22:22:49.785Z,38.80
2019-02-24T22:25:19.488Z,166.90
2019-02-24T22:27:49.043Z,33.70
2019-02-24T22:30:18.811Z,42.87
2019-02-24T22:32:48.511Z,33.27
2019-02-24T22:35:18.046Z,26.13
2019-02-24T22:37:47.633Z,26.93
2019-02-24T22:40:17.349Z,22.70
2019-02-24T22:42:46.877Z,45.90
2019-02-24T22:45:17.260Z,41.10
2019-02-24T22:47:46.987Z,65.77
2019-02-24T22:50:16.632Z,29.67
2019-02-24T22:52:46.232Z,29.40
2019-02-24T22:55:15.827Z,41.30
2019-02-24T22:57:45.421Z,31.90
2019-02-24T23:00:50.319Z,34.97
2019-02-24T23:03:19.963Z,26.83
2019-02-24T23:05:49.505Z,24.10
2019-02-24T23:08:19.049Z,35.57
2019-02-24T23:10:48.743Z,28.17
2019-02-24T23:13:18.281Z,32.27
2019-02-24T23:15:47.836Z,36.67
2019-02-24T23:18:17.382Z,49.93
2019-02-24T23:20:47.099Z,43.90
2019-02-24T23:23:16.640Z,28.20
2019-02-24T23:25:46.212Z,39.37
2019-02-24T23:28:15.896Z,32.77
2019-02-24T23:30:45.607Z,32.67
2019-02-24T23:33:15.316Z,33.90
2019-02-24T23:35:44.938Z,29.73
2019-02-24T23:38:14.614Z,28.67
2019-02-24T23:40:44.171Z,31.03
2019-02-24T23:43:13.794Z,33.53
2019-02-24T23:45:43.383Z,37.00
2019-02-24T23:48:13.002Z,36.40
